sensor_id;sensor_type;location;lat;lon;timestamp;temperature;humidity
22416;DHT22;12204;50.600;4.608;2023-05-16T00:04:12;22.60;72.30
22416;DHT22;12204;50.600;4.608;2023-05-16T00:09:18;22.60;72.30
22416;DHT22;12204;50.600;4.608;2023-05-16T00:14:26;22.60;72.60
22416;DHT22;12204;50.600;4.608;2023-05-16T00:19:31;22.60;72.70
22416;DHT22;12204;50.600;4.608;2023-05-16T00:24:36;22.60;72.90
22416;DHT22;12204;50.600;4.608;2023-05-16T00:29:43;22.60;72.90
22416;DHT22;12204;50.600;4.608;2023-05-16T00:34:47;22.60;73.20
22416;DHT22;12204;50.600;4.608;2023-05-16T00:39:52;22.60;73.30
22416;DHT22;12204;50.600;4.608;2023-05-16T00:44:58;22.60;73.20
22416;DHT22;12204;50.600;4.608;2023-05-16T00:50:03;22.70;73.10
22416;DHT22;12204;50.600;4.608;2023-05-16T00:55:08;22.60;73.00
22416;DHT22;12204;50.600;4.608;2023-05-16T01:00:18;22.60;73.00
22416;DHT22;12204;50.600;4.608;2023-05-16T01:05:23;22.60;73.10
22416;DHT22;12204;50.600;4.608;2023-05-16T01:10:30;22.60;73.20
22416;DHT22;12204;50.600;4.608;2023-05-16T01:15:43;22.60;73.20
22416;DHT22;12204;50.600;4.608;2023-05-16T01:20:52;22.70;73.30
22416;DHT22;12204;50.600;4.608;2023-05-16T01:26:11;22.60;73.30
22416;DHT22;12204;50.600;4.608;2023-05-16T01:31:19;22.60;73.40
22416;DHT22;12204;50.600;4.608;2023-05-16T01:36:28;22.60;73.40
22416;DHT22;12204;50.600;4.608;2023-05-16T01:41:40;22.60;73.60
22416;DHT22;12204;50.600;4.608;2023-05-16T01:46:51;22.60;73.60
22416;DHT22;12204;50.600;4.608;2023-05-16T01:52:03;22.60;73.60
22416;DHT22;12204;50.600;4.608;2023-05-16T01:57:14;22.60;73.50
22416;DHT22;12204;50.600;4.608;2023-05-16T02:02:19;22.60;73.60
22416;DHT22;12204;50.600;4.608;2023-05-16T02:07:24;22.50;73.70
22416;DHT22;12204;50.600;4.608;2023-05-16T02:12:30;22.50;73.80
22416;DHT22;12204;50.600;4.608;2023-05-16T02:17:35;22.50;73.70
22416;DHT22;12204;50.600;4.608;2023-05-16T02:22:40;22.50;73.50
22416;DHT22;12204;50.600;4.608;2023-05-16T02:27:46;22.50;73.70
22416;DHT22;12204;50.600;4.608;2023-05-16T02:32:51;22.50;73.80
22416;DHT22;12204;50.600;4.608;2023-05-16T02:37:57;22.50;73.80
22416;DHT22;12204;50.600;4.608;2023-05-16T02:43:03;22.50;73.90
22416;DHT22;12204;50.600;4.608;2023-05-16T02:48:09;22.60;73.90
22416;DHT22;12204;50.600;4.608;2023-05-16T02:53:15;22.50;74.00
22416;DHT22;12204;50.600;4.608;2023-05-16T02:58:21;22.50;74.10
22416;DHT22;12204;50.600;4.608;2023-05-16T03:03:26;22.50;74.20
22416;DHT22;12204;50.600;4.608;2023-05-16T03:08:33;22.50;74.30
22416;DHT22;12204;50.600;4.608;2023-05-16T03:13:39;22.50;74.30
22416;DHT22;12204;50.600;4.608;2023-05-16T03:18:44;22.50;74.50
22416;DHT22;12204;50.600;4.608;2023-05-16T03:23:49;22.50;74.40
22416;DHT22;12204;50.600;4.608;2023-05-16T03:28:57;22.50;74.50
22416;DHT22;12204;50.600;4.608;2023-05-16T03:34:02;22.50;74.60
22416;DHT22;12204;50.600;4.608;2023-05-16T03:39:07;22.50;74.60
22416;DHT22;12204;50.600;4.608;2023-05-16T03:44:14;22.50;74.70
22416;DHT22;12204;50.600;4.608;2023-05-16T03:49:19;22.50;74.70
22416;DHT22;12204;50.600;4.608;2023-05-16T03:54:29;22.50;74.70
22416;DHT22;12204;50.600;4.608;2023-05-16T03:59:37;22.50;74.40
22416;DHT22;12204;50.600;4.608;2023-05-16T04:04:42;22.50;74.40
22416;DHT22;12204;50.600;4.608;2023-05-16T04:09:47;22.50;74.60
22416;DHT22;12204;50.600;4.608;2023-05-16T04:14:53;22.50;74.60
22416;DHT22;12204;50.600;4.608;2023-05-16T04:19:59;22.40;74.50
22416;DHT22;12204;50.600;4.608;2023-05-16T04:25:04;22.50;74.60
22416;DHT22;12204;50.600;4.608;2023-05-16T04:30:11;22.50;74.60
22416;DHT22;12204;50.600;4.608;2023-05-16T04:35:17;22.50;74.40
22416;DHT22;12204;50.600;4.608;2023-05-16T04:40:23;22.50;74.40
22416;DHT22;12204;50.600;4.608;2023-05-16T04:45:29;22.50;74.40
22416;DHT22;12204;50.600;4.608;2023-05-16T04:50:38;22.50;74.40
22416;DHT22;12204;50.600;4.608;2023-05-16T04:55:43;22.50;74.40
22416;DHT22;12204;50.600;4.608;2023-05-16T05:00:49;22.50;74.40
22416;DHT22;12204;50.600;4.608;2023-05-16T05:05:54;22.50;74.40
22416;DHT22;12204;50.600;4.608;2023-05-16T05:10:59;22.40;74.40
22416;DHT22;12204;50.600;4.608;2023-05-16T05:16:05;22.40;74.40
22416;DHT22;12204;50.600;4.608;2023-05-16T05:21:10;22.40;74.50
22416;DHT22;12204;50.600;4.608;2023-05-16T05:26:15;22.40;74.60
22416;DHT22;12204;50.600;4.608;2023-05-16T05:31:21;22.40;74.50
22416;DHT22;12204;50.600;4.608;2023-05-16T05:36:26;22.40;74.50
22416;DHT22;12204;50.600;4.608;2023-05-16T05:41:32;22.50;74.60
22416;DHT22;12204;50.600;4.608;2023-05-16T05:46:38;22.50;74.30
22416;DHT22;12204;50.600;4.608;2023-05-16T05:51:43;22.60;73.80
22416;DHT22;12204;50.600;4.608;2023-05-16T05:56:48;22.60;73.30
22416;DHT22;12204;50.600;4.608;2023-05-16T06:01:54;22.60;74.10
22416;DHT22;12204;50.600;4.608;2023-05-16T06:07:02;22.60;73.90
22416;DHT22;12204;50.600;4.608;2023-05-16T06:12:06;22.60;74.00
22416;DHT22;12204;50.600;4.608;2023-05-16T06:17:13;22.60;74.20
22416;DHT22;12204;50.600;4.608;2023-05-16T06:22:20;22.60;74.00
22416;DHT22;12204;50.600;4.608;2023-05-16T06:27:25;22.60;74.10
22416;DHT22;12204;50.600;4.608;2023-05-16T06:32:31;22.50;74.10
22416;DHT22;12204;50.600;4.608;2023-05-16T06:37:36;22.50;74.20
22416;DHT22;12204;50.600;4.608;2023-05-16T06:42:44;22.50;74.20
22416;DHT22;12204;50.600;4.608;2023-05-16T06:47:52;22.50;74.00
22416;DHT22;12204;50.600;4.608;2023-05-16T06:52:58;22.50;74.10
22416;DHT22;12204;50.600;4.608;2023-05-16T06:58:03;22.50;74.00
22416;DHT22;12204;50.600;4.608;2023-05-16T07:03:09;22.50;74.00
22416;DHT22;12204;50.600;4.608;2023-05-16T07:08:14;22.50;72.10
22416;DHT22;12204;50.600;4.608;2023-05-16T07:13:20;22.40;69.60
22416;DHT22;12204;50.600;4.608;2023-05-16T07:18:27;22.30;69.20
22416;DHT22;12204;50.600;4.608;2023-05-16T07:23:32;22.20;69.80
22416;DHT22;12204;50.600;4.608;2023-05-16T07:28:37;22.30;69.80
22416;DHT22;12204;50.600;4.608;2023-05-16T07:33:44;22.30;68.90
22416;DHT22;12204;50.600;4.608;2023-05-16T07:38:50;22.20;69.40
22416;DHT22;12204;50.600;4.608;2023-05-16T07:43:54;22.20;69.50
22416;DHT22;12204;50.600;4.608;2023-05-16T07:49:01;22.20;68.60
22416;DHT22;12204;50.600;4.608;2023-05-16T07:54:06;22.20;68.30
22416;DHT22;12204;50.600;4.608;2023-05-16T07:59:10;22.10;67.20
22416;DHT22;12204;50.600;4.608;2023-05-16T08:04:17;22.10;67.30
22416;DHT22;12204;50.600;4.608;2023-05-16T08:09:22;22.10;66.30
22416;DHT22;12204;50.600;4.608;2023-05-16T08:14:27;22.00;66.30
22416;DHT22;12204;50.600;4.608;2023-05-16T08:19:35;22.10;66.40
22416;DHT22;12204;50.600;4.608;2023-05-16T08:24:40;22.10;65.80
22416;DHT22;12204;50.600;4.608;2023-05-16T08:29:45;22.20;66.60
22416;DHT22;12204;50.600;4.608;2023-05-16T08:34:51;22.20;67.00
22416;DHT22;12204;50.600;4.608;2023-05-16T08:39:55;22.30;64.90
22416;DHT22;12204;50.600;4.608;2023-05-16T08:45:01;22.20;65.90
22416;DHT22;12204;50.600;4.608;2023-05-16T08:50:09;22.20;65.70
22416;DHT22;12204;50.600;4.608;2023-05-16T08:55:14;22.20;66.20
22416;DHT22;12204;50.600;4.608;2023-05-16T09:00:20;22.20;66.00
22416;DHT22;12204;50.600;4.608;2023-05-16T09:05:28;22.20;65.60
22416;DHT22;12204;50.600;4.608;2023-05-16T09:10:34;22.20;65.70
22416;DHT22;12204;50.600;4.608;2023-05-16T09:15:39;22.20;65.80
22416;DHT22;12204;50.600;4.608;2023-05-16T09:20:47;22.30;66.60
22416;DHT22;12204;50.600;4.608;2023-05-16T09:25:54;22.20;66.00
22416;DHT22;12204;50.600;4.608;2023-05-16T09:31:01;22.20;65.20
22416;DHT22;12204;50.600;4.608;2023-05-16T09:36:07;22.10;63.10
22416;DHT22;12204;50.600;4.608;2023-05-16T09:41:13;22.10;63.60
22416;DHT22;12204;50.600;4.608;2023-05-16T09:46:18;22.10;63.80
22416;DHT22;12204;50.600;4.608;2023-05-16T09:51:24;22.10;65.40
22416;DHT22;12204;50.600;4.608;2023-05-16T09:56:30;22.20;66.30
22416;DHT22;12204;50.600;4.608;2023-05-16T10:01:56;22.20;66.70
22416;DHT22;12204;50.600;4.608;2023-05-16T10:07:06;22.30;66.80
22416;DHT22;12204;50.600;4.608;2023-05-16T10:12:12;22.30;67.10
22416;DHT22;12204;50.600;4.608;2023-05-16T10:17:18;22.30;67.30
22416;DHT22;12204;50.600;4.608;2023-05-16T10:22:24;22.30;67.30
22416;DHT22;12204;50.600;4.608;2023-05-16T10:27:30;22.30;67.40
22416;DHT22;12204;50.600;4.608;2023-05-16T10:32:36;22.30;67.50
22416;DHT22;12204;50.600;4.608;2023-05-16T10:37:45;22.30;67.70
22416;DHT22;12204;50.600;4.608;2023-05-16T10:42:54;22.30;67.70
22416;DHT22;12204;50.600;4.608;2023-05-16T10:48:00;22.30;67.80
22416;DHT22;12204;50.600;4.608;2023-05-16T10:53:12;22.30;67.90
22416;DHT22;12204;50.600;4.608;2023-05-16T10:58:22;22.30;67.90
22416;DHT22;12204;50.600;4.608;2023-05-16T11:03:28;22.30;68.00
22416;DHT22;12204;50.600;4.608;2023-05-16T11:08:35;22.30;67.80
22416;DHT22;12204;50.600;4.608;2023-05-16T11:13:52;22.30;68.00
22416;DHT22;12204;50.600;4.608;2023-05-16T11:19:03;22.30;68.00
22416;DHT22;12204;50.600;4.608;2023-05-16T11:24:29;22.30;68.00
22416;DHT22;12204;50.600;4.608;2023-05-16T11:29:34;22.30;67.90
22416;DHT22;12204;50.600;4.608;2023-05-16T11:34:39;22.30;68.10
22416;DHT22;12204;50.600;4.608;2023-05-16T11:39:46;22.30;68.20
22416;DHT22;12204;50.600;4.608;2023-05-16T11:45:01;22.30;68.10
22416;DHT22;12204;50.600;4.608;2023-05-16T11:50:11;22.30;68.20
22416;DHT22;12204;50.600;4.608;2023-05-16T11:55:21;22.30;68.10
22416;DHT22;12204;50.600;4.608;2023-05-16T12:00:46;22.30;68.10
22416;DHT22;12204;50.600;4.608;2023-05-16T12:05:52;22.30;68.30
22416;DHT22;12204;50.600;4.608;2023-05-16T12:10:59;22.30;68.20
22416;DHT22;12204;50.600;4.608;2023-05-16T12:16:05;22.30;68.00
22416;DHT22;12204;50.600;4.608;2023-05-16T12:21:10;22.30;68.00
22416;DHT22;12204;50.600;4.608;2023-05-16T12:26:17;22.30;68.10
22416;DHT22;12204;50.600;4.608;2023-05-16T12:31:34;22.30;68.30
22416;DHT22;12204;50.600;4.608;2023-05-16T12:36:41;22.30;68.00
22416;DHT22;12204;50.600;4.608;2023-05-16T12:41:47;22.30;68.00
22416;DHT22;12204;50.600;4.608;2023-05-16T12:46:55;22.30;68.10
22416;DHT22;12204;50.600;4.608;2023-05-16T12:52:00;22.40;68.00
22416;DHT22;12204;50.600;4.608;2023-05-16T12:57:08;22.30;68.10
22416;DHT22;12204;50.600;4.608;2023-05-16T13:02:13;22.40;68.10
22416;DHT22;12204;50.600;4.608;2023-05-16T13:07:19;22.30;68.10
22416;DHT22;12204;50.600;4.608;2023-05-16T13:12:25;22.30;68.00
22416;DHT22;12204;50.600;4.608;2023-05-16T13:17:30;22.30;68.10
22416;DHT22;12204;50.600;4.608;2023-05-16T13:22:35;22.30;68.20
22416;DHT22;12204;50.600;4.608;2023-05-16T13:27:41;22.30;68.20
22416;DHT22;12204;50.600;4.608;2023-05-16T13:32:46;22.30;68.20
22416;DHT22;12204;50.600;4.608;2023-05-16T13:37:51;22.40;68.30
22416;DHT22;12204;50.600;4.608;2023-05-16T13:42:57;22.40;68.20
22416;DHT22;12204;50.600;4.608;2023-05-16T13:48:03;22.40;68.40
22416;DHT22;12204;50.600;4.608;2023-05-16T13:53:08;22.40;68.30
22416;DHT22;12204;50.600;4.608;2023-05-16T13:58:14;22.40;68.20
22416;DHT22;12204;50.600;4.608;2023-05-16T14:03:19;22.40;68.30
22416;DHT22;12204;50.600;4.608;2023-05-16T14:08:24;22.40;68.40
22416;DHT22;12204;50.600;4.608;2023-05-16T14:13:32;22.40;68.30
22416;DHT22;12204;50.600;4.608;2023-05-16T14:18:39;22.50;68.40
22416;DHT22;12204;50.600;4.608;2023-05-16T14:23:44;22.50;68.20
22416;DHT22;12204;50.600;4.608;2023-05-16T14:28:51;22.50;68.20
22416;DHT22;12204;50.600;4.608;2023-05-16T14:33:57;22.50;68.30
22416;DHT22;12204;50.600;4.608;2023-05-16T14:39:02;22.50;68.20
22416;DHT22;12204;50.600;4.608;2023-05-16T14:44:08;22.50;68.20
22416;DHT22;12204;50.600;4.608;2023-05-16T14:49:13;22.40;68.20
22416;DHT22;12204;50.600;4.608;2023-05-16T14:54:18;22.40;68.20
22416;DHT22;12204;50.600;4.608;2023-05-16T14:59:25;22.40;68.20
22416;DHT22;12204;50.600;4.608;2023-05-16T15:04:31;22.50;68.20
22416;DHT22;12204;50.600;4.608;2023-05-16T15:09:36;22.60;68.30
22416;DHT22;12204;50.600;4.608;2023-05-16T15:14:42;22.60;68.10
22416;DHT22;12204;50.600;4.608;2023-05-16T15:19:46;22.70;68.20
22416;DHT22;12204;50.600;4.608;2023-05-16T15:24:53;22.70;68.10
22416;DHT22;12204;50.600;4.608;2023-05-16T15:30:00;22.70;68.20
22416;DHT22;12204;50.600;4.608;2023-05-16T15:35:05;22.60;68.30
22416;DHT22;12204;50.600;4.608;2023-05-16T15:40:11;22.60;68.30
22416;DHT22;12204;50.600;4.608;2023-05-16T15:45:19;22.60;68.50
22416;DHT22;12204;50.600;4.608;2023-05-16T15:50:24;22.60;68.50
22416;DHT22;12204;50.600;4.608;2023-05-16T15:55:28;22.70;68.30
22416;DHT22;12204;50.600;4.608;2023-05-16T16:00:36;22.70;68.00
22416;DHT22;12204;50.600;4.608;2023-05-16T16:05:42;22.70;68.30
22416;DHT22;12204;50.600;4.608;2023-05-16T16:10:46;22.70;68.30
22416;DHT22;12204;50.600;4.608;2023-05-16T16:15:53;22.70;68.20
22416;DHT22;12204;50.600;4.608;2023-05-16T16:20:59;22.70;65.60
22416;DHT22;12204;50.600;4.608;2023-05-16T16:26:04;22.50;61.60
22416;DHT22;12204;50.600;4.608;2023-05-16T16:31:10;22.20;58.00
22416;DHT22;12204;50.600;4.608;2023-05-16T16:36:15;22.20;58.40
22416;DHT22;12204;50.600;4.608;2023-05-16T16:41:20;22.30;58.90
22416;DHT22;12204;50.600;4.608;2023-05-16T16:46:27;22.30;58.40
22416;DHT22;12204;50.600;4.608;2023-05-16T16:51:32;22.40;57.60
22416;DHT22;12204;50.600;4.608;2023-05-16T16:56:37;22.40;56.10
22416;DHT22;12204;50.600;4.608;2023-05-16T17:01:45;22.30;56.10
22416;DHT22;12204;50.600;4.608;2023-05-16T17:06:50;22.20;56.70
22416;DHT22;12204;50.600;4.608;2023-05-16T17:11:55;22.20;57.10
22416;DHT22;12204;50.600;4.608;2023-05-16T17:17:07;22.20;57.20
22416;DHT22;12204;50.600;4.608;2023-05-16T17:22:12;22.30;57.80
22416;DHT22;12204;50.600;4.608;2023-05-16T17:27:17;22.40;58.30
22416;DHT22;12204;50.600;4.608;2023-05-16T17:32:23;22.50;57.20
22416;DHT22;12204;50.600;4.608;2023-05-16T17:37:27;22.50;58.30
22416;DHT22;12204;50.600;4.608;2023-05-16T17:42:33;22.50;57.80
22416;DHT22;12204;50.600;4.608;2023-05-16T17:47:40;22.50;57.50
22416;DHT22;12204;50.600;4.608;2023-05-16T17:52:45;22.50;58.00
22416;DHT22;12204;50.600;4.608;2023-05-16T17:57:49;22.60;57.70
22416;DHT22;12204;50.600;4.608;2023-05-16T18:02:55;22.60;58.20
22416;DHT22;12204;50.600;4.608;2023-05-16T18:08:01;22.60;58.30
22416;DHT22;12204;50.600;4.608;2023-05-16T18:13:08;22.60;58.40
22416;DHT22;12204;50.600;4.608;2023-05-16T18:18:15;22.60;59.30
22416;DHT22;12204;50.600;4.608;2023-05-16T18:23:20;22.50;61.20
22416;DHT22;12204;50.600;4.608;2023-05-16T18:28:26;22.50;61.60
22416;DHT22;12204;50.600;4.608;2023-05-16T18:33:33;22.50;62.10
22416;DHT22;12204;50.600;4.608;2023-05-16T18:38:38;22.60;62.70
22416;DHT22;12204;50.600;4.608;2023-05-16T18:43:43;22.50;62.40
22416;DHT22;12204;50.600;4.608;2023-05-16T18:48:52;22.40;60.90
22416;DHT22;12204;50.600;4.608;2023-05-16T18:53:58;22.40;60.10
22416;DHT22;12204;50.600;4.608;2023-05-16T18:59:03;22.50;61.50
22416;DHT22;12204;50.600;4.608;2023-05-16T19:04:10;22.50;62.20
22416;DHT22;12204;50.600;4.608;2023-05-16T19:09:15;22.60;62.50
22416;DHT22;12204;50.600;4.608;2023-05-16T19:14:20;22.60;62.80
22416;DHT22;12204;50.600;4.608;2023-05-16T19:19:28;22.60;63.10
22416;DHT22;12204;50.600;4.608;2023-05-16T19:24:33;22.60;63.30
22416;DHT22;12204;50.600;4.608;2023-05-16T19:29:37;22.60;63.60
22416;DHT22;12204;50.600;4.608;2023-05-16T19:34:44;22.60;64.20
22416;DHT22;12204;50.600;4.608;2023-05-16T19:39:49;22.60;64.20
22416;DHT22;12204;50.600;4.608;2023-05-16T19:44:53;22.50;64.30
22416;DHT22;12204;50.600;4.608;2023-05-16T19:49:59;22.50;64.50
22416;DHT22;12204;50.600;4.608;2023-05-16T19:55:06;22.50;64.80
22416;DHT22;12204;50.600;4.608;2023-05-16T20:00:12;22.50;64.80
22416;DHT22;12204;50.600;4.608;2023-05-16T20:05:19;22.50;65.20
22416;DHT22;12204;50.600;4.608;2023-05-16T20:10:24;22.50;65.30
22416;DHT22;12204;50.600;4.608;2023-05-16T20:15:28;22.50;65.40
22416;DHT22;12204;50.600;4.608;2023-05-16T20:20:35;22.50;65.70
22416;DHT22;12204;50.600;4.608;2023-05-16T20:25:39;22.50;65.60
22416;DHT22;12204;50.600;4.608;2023-05-16T20:30:44;22.50;65.90
22416;DHT22;12204;50.600;4.608;2023-05-16T20:35:52;22.50;66.10
22416;DHT22;12204;50.600;4.608;2023-05-16T20:40:56;22.50;66.20
22416;DHT22;12204;50.600;4.608;2023-05-16T20:46:02;22.50;66.40
22416;DHT22;12204;50.600;4.608;2023-05-16T20:51:08;22.40;66.70
22416;DHT22;12204;50.600;4.608;2023-05-16T20:56:13;22.50;67.00
22416;DHT22;12204;50.600;4.608;2023-05-16T21:01:18;22.40;67.00
22416;DHT22;12204;50.600;4.608;2023-05-16T21:06:25;22.40;67.00
22416;DHT22;12204;50.600;4.608;2023-05-16T21:11:29;22.40;67.30
22416;DHT22;12204;50.600;4.608;2023-05-16T21:16:35;22.40;67.30
22416;DHT22;12204;50.600;4.608;2023-05-16T21:21:41;22.40;67.50
22416;DHT22;12204;50.600;4.608;2023-05-16T21:26:45;22.40;67.40
22416;DHT22;12204;50.600;4.608;2023-05-16T21:31:50;22.40;67.60
22416;DHT22;12204;50.600;4.608;2023-05-16T21:36:56;22.50;67.70
22416;DHT22;12204;50.600;4.608;2023-05-16T21:42:01;22.40;67.70
22416;DHT22;12204;50.600;4.608;2023-05-16T21:47:06;22.40;67.90
22416;DHT22;12204;50.600;4.608;2023-05-16T21:52:12;22.40;67.90
22416;DHT22;12204;50.600;4.608;2023-05-16T21:57:17;22.40;68.00
22416;DHT22;12204;50.600;4.608;2023-05-16T22:02:22;22.40;68.10
22416;DHT22;12204;50.600;4.608;2023-05-16T22:07:28;22.50;68.20
22416;DHT22;12204;50.600;4.608;2023-05-16T22:13:35;22.50;68.70
22416;DHT22;12204;50.600;4.608;2023-05-16T22:18:39;22.80;69.70
22416;DHT22;12204;50.600;4.608;2023-05-16T22:23:42;22.90;69.30
22416;DHT22;12204;50.600;4.608;2023-05-16T22:28:47;22.90;70.00
22416;DHT22;12204;50.600;4.608;2023-05-16T22:33:50;22.90;70.80
22416;DHT22;12204;50.600;4.608;2023-05-16T22:38:53;23.00;71.00
22416;DHT22;12204;50.600;4.608;2023-05-16T22:43:58;23.00;71.50
22416;DHT22;12204;50.600;4.608;2023-05-16T22:49:01;23.00;71.70
22416;DHT22;12204;50.600;4.608;2023-05-16T22:54:05;23.00;71.60
22416;DHT22;12204;50.600;4.608;2023-05-16T22:59:09;23.00;71.90
22416;DHT22;12204;50.600;4.608;2023-05-16T23:04:15;23.00;71.70
22416;DHT22;12204;50.600;4.608;2023-05-16T23:09:18;22.90;72.00
22416;DHT22;12204;50.600;4.608;2023-05-16T23:14:23;22.90;72.40
22416;DHT22;12204;50.600;4.608;2023-05-16T23:19:26;22.90;73.10
22416;DHT22;12204;50.600;4.608;2023-05-16T23:24:29;22.90;73.90
22416;DHT22;12204;50.600;4.608;2023-05-16T23:29:34;22.90;74.10
22416;DHT22;12204;50.600;4.608;2023-05-16T23:34:37;22.90;74.90
22416;DHT22;12204;50.600;4.608;2023-05-16T23:39:41;22.90;74.60
22416;DHT22;12204;50.600;4.608;2023-05-16T23:44:46;22.90;75.10
22416;DHT22;12204;50.600;4.608;2023-05-16T23:49:49;22.90;75.70
22416;DHT22;12204;50.600;4.608;2023-05-16T23:54:53;22.90;75.40
22416;DHT22;12204;50.600;4.608;2023-05-16T23:59:58;22.90;75.00
